sensor_id;sensor_type;location;lat;lon;timestamp;temperature;humidity
37528;DHT22;23372;52.050;4.810;2024-03-08T00:00:14;3.50;99.90
37528;DHT22;23372;52.050;4.810;2024-03-08T00:02:41;3.50;99.90
37528;DHT22;23372;52.050;4.810;2024-03-08T00:05:08;3.40;99.90
37528;DHT22;23372;52.050;4.810;2024-03-08T00:07:35;3.50;99.90
37528;DHT22;23372;52.050;4.810;2024-03-08T00:10:05;3.40;99.90
37528;DHT22;23372;52.050;4.810;2024-03-08T00:12:31;3.30;99.90
37528;DHT22;23372;52.050;4.810;2024-03-08T00:14:56;3.30;99.90
37528;DHT22;23372;52.050;4.810;2024-03-08T00:17:22;3.30;99.90
37528;DHT22;23372;52.050;4.810;2024-03-08T00:19:50;3.30;99.90
37528;DHT22;23372;52.050;4.810;2024-03-08T00:22:17;3.30;99.90
37528;DHT22;23372;52.050;4.810;2024-03-08T00:24:43;3.30;99.90
37528;DHT22;23372;52.050;4.810;2024-03-08T00:27:08;3.30;99.90
37528;DHT22;23372;52.050;4.810;2024-03-08T00:29:34;3.20;99.90
37528;DHT22;23372;52.050;4.810;2024-03-08T00:32:00;3.20;99.90
37528;DHT22;23372;52.050;4.810;2024-03-08T00:34:26;3.30;99.90
37528;DHT22;23372;52.050;4.810;2024-03-08T00:36:52;3.30;99.90
37528;DHT22;23372;52.050;4.810;2024-03-08T00:39:18;3.30;99.90
37528;DHT22;23372;52.050;4.810;2024-03-08T00:41:46;3.20;99.90
37528;DHT22;23372;52.050;4.810;2024-03-08T00:44:12;3.20;99.90
37528;DHT22;23372;52.050;4.810;2024-03-08T00:46:37;3.20;99.90
37528;DHT22;23372;52.050;4.810;2024-03-08T00:49:03;3.20;99.90
37528;DHT22;23372;52.050;4.810;2024-03-08T00:51:29;3.20;99.90
37528;DHT22;23372;52.050;4.810;2024-03-08T00:53:54;3.10;99.90
37528;DHT22;23372;52.050;4.810;2024-03-08T00:56:20;3.10;99.90
37528;DHT22;23372;52.050;4.810;2024-03-08T00:58:46;3.00;99.90
37528;DHT22;23372;52.050;4.810;2024-03-08T01:01:13;3.00;99.90
37528;DHT22;23372;52.050;4.810;2024-03-08T01:03:42;3.00;99.90
37528;DHT22;23372;52.050;4.810;2024-03-08T01:06:08;3.00;99.90
37528;DHT22;23372;52.050;4.810;2024-03-08T01:08:34;3.00;99.90
37528;DHT22;23372;52.050;4.810;2024-03-08T01:10:59;3.00;99.90
37528;DHT22;23372;52.050;4.810;2024-03-08T01:13:25;3.00;99.90
37528;DHT22;23372;52.050;4.810;2024-03-08T01:15:51;3.00;99.90
37528;DHT22;23372;52.050;4.810;2024-03-08T01:18:17;2.90;99.90
37528;DHT22;23372;52.050;4.810;2024-03-08T01:20:42;2.90;99.90
37528;DHT22;23372;52.050;4.810;2024-03-08T01:23:08;2.90;99.90
37528;DHT22;23372;52.050;4.810;2024-03-08T01:25:34;2.80;99.90
37528;DHT22;23372;52.050;4.810;2024-03-08T01:27:59;2.80;99.90
37528;DHT22;23372;52.050;4.810;2024-03-08T01:30:25;2.80;99.90
37528;DHT22;23372;52.050;4.810;2024-03-08T01:32:50;2.80;99.90
37528;DHT22;23372;52.050;4.810;2024-03-08T01:35:16;2.80;99.90
37528;DHT22;23372;52.050;4.810;2024-03-08T01:37:41;2.70;99.90
37528;DHT22;23372;52.050;4.810;2024-03-08T01:40:07;2.70;99.90
37528;DHT22;23372;52.050;4.810;2024-03-08T01:42:34;2.70;99.90
37528;DHT22;23372;52.050;4.810;2024-03-08T01:45:04;2.70;99.90
37528;DHT22;23372;52.050;4.810;2024-03-08T01:47:30;2.70;99.90
37528;DHT22;23372;52.050;4.810;2024-03-08T01:49:59;2.70;99.90
37528;DHT22;23372;52.050;4.810;2024-03-08T01:52:27;2.70;99.90
37528;DHT22;23372;52.050;4.810;2024-03-08T01:54:53;2.70;99.90
37528;DHT22;23372;52.050;4.810;2024-03-08T01:57:19;2.60;99.90
37528;DHT22;23372;52.050;4.810;2024-03-08T01:59:45;2.60;99.90
37528;DHT22;23372;52.050;4.810;2024-03-08T02:02:11;2.60;99.90
37528;DHT22;23372;52.050;4.810;2024-03-08T02:04:40;2.60;99.90
37528;DHT22;23372;52.050;4.810;2024-03-08T02:07:06;2.50;99.90
37528;DHT22;23372;52.050;4.810;2024-03-08T02:09:31;2.50;99.90
37528;DHT22;23372;52.050;4.810;2024-03-08T02:11:57;2.50;99.90
37528;DHT22;23372;52.050;4.810;2024-03-08T02:14:23;2.50;99.90
37528;DHT22;23372;52.050;4.810;2024-03-08T02:16:49;2.40;99.90
37528;DHT22;23372;52.050;4.810;2024-03-08T02:19:16;2.40;99.90
37528;DHT22;23372;52.050;4.810;2024-03-08T02:21:42;2.40;99.90
37528;DHT22;23372;52.050;4.810;2024-03-08T02:24:09;2.30;99.90
37528;DHT22;23372;52.050;4.810;2024-03-08T02:26:34;2.30;99.90
37528;DHT22;23372;52.050;4.810;2024-03-08T02:29:00;2.30;99.90
37528;DHT22;23372;52.050;4.810;2024-03-08T02:31:26;2.30;99.90
37528;DHT22;23372;52.050;4.810;2024-03-08T02:33:51;2.30;99.90
37528;DHT22;23372;52.050;4.810;2024-03-08T02:36:17;2.30;99.90
37528;DHT22;23372;52.050;4.810;2024-03-08T02:38:43;2.20;99.90
37528;DHT22;23372;52.050;4.810;2024-03-08T02:41:08;2.20;99.90
37528;DHT22;23372;52.050;4.810;2024-03-08T02:43:34;2.20;99.90
37528;DHT22;23372;52.050;4.810;2024-03-08T02:46:00;2.20;99.90
37528;DHT22;23372;52.050;4.810;2024-03-08T02:48:25;2.20;99.90
37528;DHT22;23372;52.050;4.810;2024-03-08T02:50:51;2.20;99.90
37528;DHT22;23372;52.050;4.810;2024-03-08T02:53:16;2.10;99.90
37528;DHT22;23372;52.050;4.810;2024-03-08T02:55:44;2.10;99.90
37528;DHT22;23372;52.050;4.810;2024-03-08T02:58:10;2.10;99.90
37528;DHT22;23372;52.050;4.810;2024-03-08T03:00:36;2.10;99.90
37528;DHT22;23372;52.050;4.810;2024-03-08T03:03:02;2.10;99.90
37528;DHT22;23372;52.050;4.810;2024-03-08T03:05:28;2.10;99.90
37528;DHT22;23372;52.050;4.810;2024-03-08T03:07:55;2.00;99.90
37528;DHT22;23372;52.050;4.810;2024-03-08T03:10:20;2.00;99.90
37528;DHT22;23372;52.050;4.810;2024-03-08T03:12:47;2.00;99.90
37528;DHT22;23372;52.050;4.810;2024-03-08T03:15:16;2.00;99.90
37528;DHT22;23372;52.050;4.810;2024-03-08T03:17:46;2.00;99.90
37528;DHT22;23372;52.050;4.810;2024-03-08T03:20:13;1.90;99.90
37528;DHT22;23372;52.050;4.810;2024-03-08T03:22:40;1.90;99.90
37528;DHT22;23372;52.050;4.810;2024-03-08T03:25:07;1.90;99.90
37528;DHT22;23372;52.050;4.810;2024-03-08T03:27:33;1.90;99.90
37528;DHT22;23372;52.050;4.810;2024-03-08T03:29:59;1.90;99.90
37528;DHT22;23372;52.050;4.810;2024-03-08T03:32:44;1.80;99.90
37528;DHT22;23372;52.050;4.810;2024-03-08T03:35:13;1.80;99.90
37528;DHT22;23372;52.050;4.810;2024-03-08T03:37:38;1.80;99.90
37528;DHT22;23372;52.050;4.810;2024-03-08T03:40:06;1.80;99.90
37528;DHT22;23372;52.050;4.810;2024-03-08T03:42:33;1.80;99.90
37528;DHT22;23372;52.050;4.810;2024-03-08T03:44:59;1.80;99.90
37528;DHT22;23372;52.050;4.810;2024-03-08T03:47:25;1.70;99.90
37528;DHT22;23372;52.050;4.810;2024-03-08T03:49:52;1.70;99.90
37528;DHT22;23372;52.050;4.810;2024-03-08T03:52:19;1.70;99.90
37528;DHT22;23372;52.050;4.810;2024-03-08T03:54:45;1.60;99.90
37528;DHT22;23372;52.050;4.810;2024-03-08T03:57:10;1.60;99.90
37528;DHT22;23372;52.050;4.810;2024-03-08T03:59:37;1.60;99.90
37528;DHT22;23372;52.050;4.810;2024-03-08T04:02:03;1.70;99.90
37528;DHT22;23372;52.050;4.810;2024-03-08T04:04:29;1.60;99.90
37528;DHT22;23372;52.050;4.810;2024-03-08T04:06:54;1.60;99.90
37528;DHT22;23372;52.050;4.810;2024-03-08T04:09:20;1.60;99.90
37528;DHT22;23372;52.050;4.810;2024-03-08T04:11:48;1.60;99.90
37528;DHT22;23372;52.050;4.810;2024-03-08T04:14:13;1.50;99.90
37528;DHT22;23372;52.050;4.810;2024-03-08T04:16:39;1.40;99.90
37528;DHT22;23372;52.050;4.810;2024-03-08T04:19:04;1.50;99.90
37528;DHT22;23372;52.050;4.810;2024-03-08T04:21:30;1.50;99.90
37528;DHT22;23372;52.050;4.810;2024-03-08T04:23:56;1.50;99.90
37528;DHT22;23372;52.050;4.810;2024-03-08T04:26:22;1.50;99.90
37528;DHT22;23372;52.050;4.810;2024-03-08T04:28:47;1.50;99.90
37528;DHT22;23372;52.050;4.810;2024-03-08T04:31:13;1.40;99.90
37528;DHT22;23372;52.050;4.810;2024-03-08T04:33:39;1.40;99.90
37528;DHT22;23372;52.050;4.810;2024-03-08T04:36:04;1.50;99.90
37528;DHT22;23372;52.050;4.810;2024-03-08T04:38:30;1.40;99.90
37528;DHT22;23372;52.050;4.810;2024-03-08T04:40:57;1.40;99.90
37528;DHT22;23372;52.050;4.810;2024-03-08T04:43:23;1.40;99.90
37528;DHT22;23372;52.050;4.810;2024-03-08T04:45:52;1.40;99.90
37528;DHT22;23372;52.050;4.810;2024-03-08T04:48:19;1.40;99.90
37528;DHT22;23372;52.050;4.810;2024-03-08T04:50:44;1.30;99.90
37528;DHT22;23372;52.050;4.810;2024-03-08T04:53:10;1.30;99.90
37528;DHT22;23372;52.050;4.810;2024-03-08T04:55:36;1.30;99.90
37528;DHT22;23372;52.050;4.810;2024-03-08T04:58:03;1.30;99.90
37528;DHT22;23372;52.050;4.810;2024-03-08T05:00:31;1.30;99.90
37528;DHT22;23372;52.050;4.810;2024-03-08T05:02:57;1.30;99.90
37528;DHT22;23372;52.050;4.810;2024-03-08T05:05:23;1.20;99.90
37528;DHT22;23372;52.050;4.810;2024-03-08T05:07:50;1.30;99.90
37528;DHT22;23372;52.050;4.810;2024-03-08T05:10:15;1.20;99.90
37528;DHT22;23372;52.050;4.810;2024-03-08T05:12:43;1.30;99.90
37528;DHT22;23372;52.050;4.810;2024-03-08T05:15:09;1.30;99.90
37528;DHT22;23372;52.050;4.810;2024-03-08T05:17:34;1.20;99.90
37528;DHT22;23372;52.050;4.810;2024-03-08T05:20:00;1.20;99.90
37528;DHT22;23372;52.050;4.810;2024-03-08T05:22:25;1.20;99.90
37528;DHT22;23372;52.050;4.810;2024-03-08T05:24:51;1.20;99.90
37528;DHT22;23372;52.050;4.810;2024-03-08T05:27:17;1.20;99.90
37528;DHT22;23372;52.050;4.810;2024-03-08T05:29:42;1.20;99.90
37528;DHT22;23372;52.050;4.810;2024-03-08T05:32:08;1.20;99.90
37528;DHT22;23372;52.050;4.810;2024-03-08T05:34:35;1.20;99.90
37528;DHT22;23372;52.050;4.810;2024-03-08T05:37:01;1.20;99.90
37528;DHT22;23372;52.050;4.810;2024-03-08T05:39:27;1.20;99.90
37528;DHT22;23372;52.050;4.810;2024-03-08T05:41:53;1.20;99.90
37528;DHT22;23372;52.050;4.810;2024-03-08T05:44:20;1.20;99.90
37528;DHT22;23372;52.050;4.810;2024-03-08T05:46:46;1.10;99.90
37528;DHT22;23372;52.050;4.810;2024-03-08T05:49:12;1.20;99.90
37528;DHT22;23372;52.050;4.810;2024-03-08T05:51:39;1.10;99.90
37528;DHT22;23372;52.050;4.810;2024-03-08T05:54:08;1.10;99.90
37528;DHT22;23372;52.050;4.810;2024-03-08T05:56:35;1.20;99.90
37528;DHT22;23372;52.050;4.810;2024-03-08T05:59:01;1.20;99.90
37528;DHT22;23372;52.050;4.810;2024-03-08T06:01:27;1.10;99.90
37528;DHT22;23372;52.050;4.810;2024-03-08T06:03:53;1.20;99.90
37528;DHT22;23372;52.050;4.810;2024-03-08T06:06:21;1.10;99.90
37528;DHT22;23372;52.050;4.810;2024-03-08T06:08:47;1.10;99.90
37528;DHT22;23372;52.050;4.810;2024-03-08T06:11:14;1.10;99.90
37528;DHT22;23372;52.050;4.810;2024-03-08T06:13:40;1.10;99.90
37528;DHT22;23372;52.050;4.810;2024-03-08T06:16:06;1.10;99.90
37528;DHT22;23372;52.050;4.810;2024-03-08T06:18:34;1.10;99.90
37528;DHT22;23372;52.050;4.810;2024-03-08T06:21:05;1.10;99.90
37528;DHT22;23372;52.050;4.810;2024-03-08T06:23:34;1.20;99.90
37528;DHT22;23372;52.050;4.810;2024-03-08T06:26:04;1.20;99.90
37528;DHT22;23372;52.050;4.810;2024-03-08T06:28:29;1.20;99.90
37528;DHT22;23372;52.050;4.810;2024-03-08T06:30:55;1.30;99.90
37528;DHT22;23372;52.050;4.810;2024-03-08T06:33:20;1.30;99.90
37528;DHT22;23372;52.050;4.810;2024-03-08T06:35:46;1.30;99.90
37528;DHT22;23372;52.050;4.810;2024-03-08T06:38:11;1.30;99.90
37528;DHT22;23372;52.050;4.810;2024-03-08T06:40:37;1.40;99.90
37528;DHT22;23372;52.050;4.810;2024-03-08T06:43:03;1.40;99.90
37528;DHT22;23372;52.050;4.810;2024-03-08T06:45:32;1.50;99.90
37528;DHT22;23372;52.050;4.810;2024-03-08T06:47:58;1.50;99.90
37528;DHT22;23372;52.050;4.810;2024-03-08T06:50:23;1.50;99.90
37528;DHT22;23372;52.050;4.810;2024-03-08T06:52:49;1.50;99.90
37528;DHT22;23372;52.050;4.810;2024-03-08T06:55:22;1.60;99.90
37528;DHT22;23372;52.050;4.810;2024-03-08T06:57:47;1.60;99.90
37528;DHT22;23372;52.050;4.810;2024-03-08T07:00:13;1.70;99.90
37528;DHT22;23372;52.050;4.810;2024-03-08T07:02:44;1.80;99.90
37528;DHT22;23372;52.050;4.810;2024-03-08T07:05:11;1.80;99.90
37528;DHT22;23372;52.050;4.810;2024-03-08T07:07:37;1.90;99.90
37528;DHT22;23372;52.050;4.810;2024-03-08T07:10:03;2.00;99.90
37528;DHT22;23372;52.050;4.810;2024-03-08T07:12:28;2.10;99.90
37528;DHT22;23372;52.050;4.810;2024-03-08T07:14:54;2.10;99.90
37528;DHT22;23372;52.050;4.810;2024-03-08T07:17:20;2.20;99.90
37528;DHT22;23372;52.050;4.810;2024-03-08T07:19:45;2.30;99.90
37528;DHT22;23372;52.050;4.810;2024-03-08T07:22:11;2.60;99.90
37528;DHT22;23372;52.050;4.810;2024-03-08T07:24:37;2.70;99.90
37528;DHT22;23372;52.050;4.810;2024-03-08T07:27:06;2.80;99.90
37528;DHT22;23372;52.050;4.810;2024-03-08T07:29:35;3.00;99.90
37528;DHT22;23372;52.050;4.810;2024-03-08T07:32:00;3.30;99.90
37528;DHT22;23372;52.050;4.810;2024-03-08T07:34:26;3.50;99.90
37528;DHT22;23372;52.050;4.810;2024-03-08T07:36:52;3.80;99.90
37528;DHT22;23372;52.050;4.810;2024-03-08T07:39:17;3.80;99.90
37528;DHT22;23372;52.050;4.810;2024-03-08T07:41:44;3.90;99.90
37528;DHT22;23372;52.050;4.810;2024-03-08T07:44:10;3.90;99.90
37528;DHT22;23372;52.050;4.810;2024-03-08T07:46:35;4.10;99.90
37528;DHT22;23372;52.050;4.810;2024-03-08T07:49:02;4.60;99.90
37528;DHT22;23372;52.050;4.810;2024-03-08T07:51:28;4.80;99.90
37528;DHT22;23372;52.050;4.810;2024-03-08T07:53:54;5.30;99.90
37528;DHT22;23372;52.050;4.810;2024-03-08T07:56:20;5.70;99.90
37528;DHT22;23372;52.050;4.810;2024-03-08T07:58:47;5.60;99.90
37528;DHT22;23372;52.050;4.810;2024-03-08T08:01:21;5.70;99.90
37528;DHT22;23372;52.050;4.810;2024-03-08T08:03:47;5.40;99.90
37528;DHT22;23372;52.050;4.810;2024-03-08T08:06:15;5.80;99.90
37528;DHT22;23372;52.050;4.810;2024-03-08T08:08:44;5.60;99.90
37528;DHT22;23372;52.050;4.810;2024-03-08T08:11:10;5.30;99.90
37528;DHT22;23372;52.050;4.810;2024-03-08T08:13:41;5.80;99.90
37528;DHT22;23372;52.050;4.810;2024-03-08T08:16:09;6.10;99.90
37528;DHT22;23372;52.050;4.810;2024-03-08T08:18:36;7.00;99.90
37528;DHT22;23372;52.050;4.810;2024-03-08T08:21:05;7.80;99.90
37528;DHT22;23372;52.050;4.810;2024-03-08T08:23:33;8.80;99.90
37528;DHT22;23372;52.050;4.810;2024-03-08T08:25:59;8.90;99.90
37528;DHT22;23372;52.050;4.810;2024-03-08T08:28:25;9.60;99.90
37528;DHT22;23372;52.050;4.810;2024-03-08T08:30:50;9.50;99.90
37528;DHT22;23372;52.050;4.810;2024-03-08T08:33:16;10.80;99.90
37528;DHT22;23372;52.050;4.810;2024-03-08T08:35:42;11.50;99.90
37528;DHT22;23372;52.050;4.810;2024-03-08T08:38:08;11.80;99.90
37528;DHT22;23372;52.050;4.810;2024-03-08T08:40:34;11.90;99.90
37528;DHT22;23372;52.050;4.810;2024-03-08T08:43:01;12.00;99.90
37528;DHT22;23372;52.050;4.810;2024-03-08T08:45:30;11.90;99.90
37528;DHT22;23372;52.050;4.810;2024-03-08T08:47:56;13.30;99.90
37528;DHT22;23372;52.050;4.810;2024-03-08T08:50:22;13.10;94.50
37528;DHT22;23372;52.050;4.810;2024-03-08T08:52:51;12.90;96.20
37528;DHT22;23372;52.050;4.810;2024-03-08T08:55:16;12.80;96.70
37528;DHT22;23372;52.050;4.810;2024-03-08T08:57:46;13.30;89.20
37528;DHT22;23372;52.050;4.810;2024-03-08T09:00:12;12.90;93.90
37528;DHT22;23372;52.050;4.810;2024-03-08T09:02:41;12.60;91.00
37528;DHT22;23372;52.050;4.810;2024-03-08T09:05:07;13.30;95.60
37528;DHT22;23372;52.050;4.810;2024-03-08T09:07:33;13.30;87.80
37528;DHT22;23372;52.050;4.810;2024-03-08T09:10:02;13.40;92.30
37528;DHT22;23372;52.050;4.810;2024-03-08T09:12:27;14.00;86.80
37528;DHT22;23372;52.050;4.810;2024-03-08T09:14:53;13.50;86.00
37528;DHT22;23372;52.050;4.810;2024-03-08T09:17:19;14.20;93.40
37528;DHT22;23372;52.050;4.810;2024-03-08T09:19:49;15.10;77.60
37528;DHT22;23372;52.050;4.810;2024-03-08T09:22:15;15.50;86.50
37528;DHT22;23372;52.050;4.810;2024-03-08T09:24:41;15.30;75.00
37528;DHT22;23372;52.050;4.810;2024-03-08T09:27:08;14.90;71.90
37528;DHT22;23372;52.050;4.810;2024-03-08T09:29:35;15.50;68.60
37528;DHT22;23372;52.050;4.810;2024-03-08T09:32:01;15.50;63.50
37528;DHT22;23372;52.050;4.810;2024-03-08T09:34:26;14.70;64.50
37528;DHT22;23372;52.050;4.810;2024-03-08T09:36:52;14.90;70.40
37528;DHT22;23372;52.050;4.810;2024-03-08T09:39:18;15.20;64.60
37528;DHT22;23372;52.050;4.810;2024-03-08T09:41:46;14.70;68.10
37528;DHT22;23372;52.050;4.810;2024-03-08T09:44:15;13.80;84.40
37528;DHT22;23372;52.050;4.810;2024-03-08T09:46:42;13.40;87.20
37528;DHT22;23372;52.050;4.810;2024-03-08T09:49:08;14.00;92.00
37528;DHT22;23372;52.050;4.810;2024-03-08T09:51:34;14.50;85.50
37528;DHT22;23372;52.050;4.810;2024-03-08T09:54:02;13.80;84.80
37528;DHT22;23372;52.050;4.810;2024-03-08T09:56:32;12.90;90.70
37528;DHT22;23372;52.050;4.810;2024-03-08T09:58:59;12.30;96.30
37528;DHT22;23372;52.050;4.810;2024-03-08T10:01:50;12.20;99.90
37528;DHT22;23372;52.050;4.810;2024-03-08T10:04:17;12.00;99.90
37528;DHT22;23372;52.050;4.810;2024-03-08T10:06:43;11.20;99.90
37528;DHT22;23372;52.050;4.810;2024-03-08T10:09:12;11.00;99.90
37528;DHT22;23372;52.050;4.810;2024-03-08T10:11:38;10.90;99.90
37528;DHT22;23372;52.050;4.810;2024-03-08T10:14:05;10.50;99.90
37528;DHT22;23372;52.050;4.810;2024-03-08T10:16:31;10.70;99.90
37528;DHT22;23372;52.050;4.810;2024-03-08T10:18:57;9.90;99.90
37528;DHT22;23372;52.050;4.810;2024-03-08T10:21:22;9.30;99.90
37528;DHT22;23372;52.050;4.810;2024-03-08T10:23:48;9.30;99.90
37528;DHT22;23372;52.050;4.810;2024-03-08T10:26:15;9.40;99.90
37528;DHT22;23372;52.050;4.810;2024-03-08T10:28:42;9.50;99.90
37528;DHT22;23372;52.050;4.810;2024-03-08T10:31:08;10.10;99.90
37528;DHT22;23372;52.050;4.810;2024-03-08T10:33:35;10.20;99.90
37528;DHT22;23372;52.050;4.810;2024-03-08T10:36:00;9.90;99.90
37528;DHT22;23372;52.050;4.810;2024-03-08T10:38:26;9.60;99.90
37528;DHT22;23372;52.050;4.810;2024-03-08T10:40:54;9.70;99.90
37528;DHT22;23372;52.050;4.810;2024-03-08T10:43:25;9.80;99.90
37528;DHT22;23372;52.050;4.810;2024-03-08T10:48:50;9.50;99.90
37528;DHT22;23372;52.050;4.810;2024-03-08T10:51:19;9.40;99.90
37528;DHT22;23372;52.050;4.810;2024-03-08T10:53:46;9.30;99.90
37528;DHT22;23372;52.050;4.810;2024-03-08T10:56:13;9.30;99.90
37528;DHT22;23372;52.050;4.810;2024-03-08T10:58:40;9.40;99.90
37528;DHT22;23372;52.050;4.810;2024-03-08T11:01:06;9.30;99.90
37528;DHT22;23372;52.050;4.810;2024-03-08T11:06:18;10.10;99.90
37528;DHT22;23372;52.050;4.810;2024-03-08T11:08:47;10.00;99.90
37528;DHT22;23372;52.050;4.810;2024-03-08T11:11:28;10.70;99.90
37528;DHT22;23372;52.050;4.810;2024-03-08T11:13:56;11.00;99.90
37528;DHT22;23372;52.050;4.810;2024-03-08T11:21:36;10.50;99.90
37528;DHT22;23372;52.050;4.810;2024-03-08T11:24:12;10.40;99.90
37528;DHT22;23372;52.050;4.810;2024-03-08T11:26:40;10.80;99.90
37528;DHT22;23372;52.050;4.810;2024-03-08T11:32:10;11.20;99.90
37528;DHT22;23372;52.050;4.810;2024-03-08T11:34:37;11.00;99.90
37528;DHT22;23372;52.050;4.810;2024-03-08T11:37:19;10.70;99.90
37528;DHT22;23372;52.050;4.810;2024-03-08T11:39:50;10.90;99.90
37528;DHT22;23372;52.050;4.810;2024-03-08T11:42:19;11.20;99.90
37528;DHT22;23372;52.050;4.810;2024-03-08T11:44:46;11.50;99.90
37528;DHT22;23372;52.050;4.810;2024-03-08T11:47:14;11.90;99.90
37528;DHT22;23372;52.050;4.810;2024-03-08T11:49:40;12.10;99.90
37528;DHT22;23372;52.050;4.810;2024-03-08T11:52:17;12.20;99.90
37528;DHT22;23372;52.050;4.810;2024-03-08T11:54:53;12.30;99.90
37528;DHT22;23372;52.050;4.810;2024-03-08T11:57:23;12.20;99.90
37528;DHT22;23372;52.050;4.810;2024-03-08T11:59:55;12.00;99.90
37528;DHT22;23372;52.050;4.810;2024-03-08T12:02:25;12.30;99.90
37528;DHT22;23372;52.050;4.810;2024-03-08T12:04:58;12.50;99.90
37528;DHT22;23372;52.050;4.810;2024-03-08T12:07:29;12.50;99.90
37528;DHT22;23372;52.050;4.810;2024-03-08T12:10:20;12.70;99.90
37528;DHT22;23372;52.050;4.810;2024-03-08T12:12:48;12.70;99.90
37528;DHT22;23372;52.050;4.810;2024-03-08T12:15:22;12.70;99.90
37528;DHT22;23372;52.050;4.810;2024-03-08T12:17:50;12.50;99.90
37528;DHT22;23372;52.050;4.810;2024-03-08T12:20:24;12.40;99.90
37528;DHT22;23372;52.050;4.810;2024-03-08T12:22:52;12.20;99.90
37528;DHT22;23372;52.050;4.810;2024-03-08T12:25:19;12.30;99.90
37528;DHT22;23372;52.050;4.810;2024-03-08T12:27:46;12.30;99.90
37528;DHT22;23372;52.050;4.810;2024-03-08T12:33:02;11.70;99.90
37528;DHT22;23372;52.050;4.810;2024-03-08T12:35:29;11.90;99.90
37528;DHT22;23372;52.050;4.810;2024-03-08T12:37:59;11.90;99.90
37528;DHT22;23372;52.050;4.810;2024-03-08T12:40:29;12.00;99.90
37528;DHT22;23372;52.050;4.810;2024-03-08T12:42:57;11.80;99.90
37528;DHT22;23372;52.050;4.810;2024-03-08T12:45:23;11.60;99.90
37528;DHT22;23372;52.050;4.810;2024-03-08T12:47:53;11.50;99.90
37528;DHT22;23372;52.050;4.810;2024-03-08T12:50:22;11.30;99.90
37528;DHT22;23372;52.050;4.810;2024-03-08T12:52:50;11.30;99.90
37528;DHT22;23372;52.050;4.810;2024-03-08T12:55:15;11.30;99.90
37528;DHT22;23372;52.050;4.810;2024-03-08T12:57:42;11.40;99.90
37528;DHT22;23372;52.050;4.810;2024-03-08T13:00:08;11.20;99.90
37528;DHT22;23372;52.050;4.810;2024-03-08T13:02:47;11.20;99.90
37528;DHT22;23372;52.050;4.810;2024-03-08T13:05:12;11.10;99.90
37528;DHT22;23372;52.050;4.810;2024-03-08T13:07:40;11.00;99.90
37528;DHT22;23372;52.050;4.810;2024-03-08T13:10:10;11.10;99.90
37528;DHT22;23372;52.050;4.810;2024-03-08T13:12:40;10.90;99.90
37528;DHT22;23372;52.050;4.810;2024-03-08T13:15:07;10.70;99.90
37528;DHT22;23372;52.050;4.810;2024-03-08T13:17:34;10.60;99.90
37528;DHT22;23372;52.050;4.810;2024-03-08T13:19:59;10.80;99.90
37528;DHT22;23372;52.050;4.810;2024-03-08T13:22:25;10.60;99.90
37528;DHT22;23372;52.050;4.810;2024-03-08T13:24:51;10.60;99.90
37528;DHT22;23372;52.050;4.810;2024-03-08T13:27:17;10.60;99.90
37528;DHT22;23372;52.050;4.810;2024-03-08T13:29:48;10.60;99.90
37528;DHT22;23372;52.050;4.810;2024-03-08T13:32:17;10.60;99.90
37528;DHT22;23372;52.050;4.810;2024-03-08T13:34:46;10.50;99.90
37528;DHT22;23372;52.050;4.810;2024-03-08T13:37:12;10.40;99.90
37528;DHT22;23372;52.050;4.810;2024-03-08T13:39:41;10.20;99.90
37528;DHT22;23372;52.050;4.810;2024-03-08T13:42:09;10.40;99.90
37528;DHT22;23372;52.050;4.810;2024-03-08T13:44:43;10.50;99.90
37528;DHT22;23372;52.050;4.810;2024-03-08T13:47:09;10.50;99.90
37528;DHT22;23372;52.050;4.810;2024-03-08T13:49:37;10.60;99.90
37528;DHT22;23372;52.050;4.810;2024-03-08T13:52:03;10.50;99.90
37528;DHT22;23372;52.050;4.810;2024-03-08T13:54:29;10.50;99.90
37528;DHT22;23372;52.050;4.810;2024-03-08T13:56:57;10.30;99.90
37528;DHT22;23372;52.050;4.810;2024-03-08T13:59:23;10.30;99.90
37528;DHT22;23372;52.050;4.810;2024-03-08T14:01:49;10.30;99.90
37528;DHT22;23372;52.050;4.810;2024-03-08T14:04:15;10.30;99.90
37528;DHT22;23372;52.050;4.810;2024-03-08T14:06:42;10.30;99.90
37528;DHT22;23372;52.050;4.810;2024-03-08T14:09:11;10.30;99.90
37528;DHT22;23372;52.050;4.810;2024-03-08T14:11:44;10.30;99.90
37528;DHT22;23372;52.050;4.810;2024-03-08T14:14:11;10.30;99.90
37528;DHT22;23372;52.050;4.810;2024-03-08T14:16:39;10.20;99.90
37528;DHT22;23372;52.050;4.810;2024-03-08T14:19:05;10.20;99.90
37528;DHT22;23372;52.050;4.810;2024-03-08T14:21:34;10.20;99.90
37528;DHT22;23372;52.050;4.810;2024-03-08T14:30:48;9.80;99.90
37528;DHT22;23372;52.050;4.810;2024-03-08T14:33:17;9.90;99.90
37528;DHT22;23372;52.050;4.810;2024-03-08T14:35:44;9.90;99.90
37528;DHT22;23372;52.050;4.810;2024-03-08T14:38:11;9.90;99.90
37528;DHT22;23372;52.050;4.810;2024-03-08T14:40:38;9.90;99.90
37528;DHT22;23372;52.050;4.810;2024-03-08T14:43:07;10.20;99.90
37528;DHT22;23372;52.050;4.810;2024-03-08T14:45:34;10.30;99.90
37528;DHT22;23372;52.050;4.810;2024-03-08T14:48:01;10.10;99.90
37528;DHT22;23372;52.050;4.810;2024-03-08T14:50:30;10.10;99.90
37528;DHT22;23372;52.050;4.810;2024-03-08T14:52:58;10.30;99.90
37528;DHT22;23372;52.050;4.810;2024-03-08T14:55:26;10.30;99.90
37528;DHT22;23372;52.050;4.810;2024-03-08T14:57:52;10.30;99.90
37528;DHT22;23372;52.050;4.810;2024-03-08T15:00:23;10.20;99.90
37528;DHT22;23372;52.050;4.810;2024-03-08T15:02:55;10.20;99.90
37528;DHT22;23372;52.050;4.810;2024-03-08T15:05:22;10.10;99.90
37528;DHT22;23372;52.050;4.810;2024-03-08T15:07:52;10.30;99.90
37528;DHT22;23372;52.050;4.810;2024-03-08T15:10:25;10.20;99.90
37528;DHT22;23372;52.050;4.810;2024-03-08T15:12:51;10.30;99.90
37528;DHT22;23372;52.050;4.810;2024-03-08T15:15:25;10.40;99.90
37528;DHT22;23372;52.050;4.810;2024-03-08T15:17:52;10.20;99.90
37528;DHT22;23372;52.050;4.810;2024-03-08T15:20:21;10.30;99.90
37528;DHT22;23372;52.050;4.810;2024-03-08T15:22:51;10.20;99.90
37528;DHT22;23372;52.050;4.810;2024-03-08T15:25:22;10.20;99.90
37528;DHT22;23372;52.050;4.810;2024-03-08T15:27:55;10.00;99.90
37528;DHT22;23372;52.050;4.810;2024-03-08T15:30:23;10.00;99.90
37528;DHT22;23372;52.050;4.810;2024-03-08T15:32:56;9.90;99.90
37528;DHT22;23372;52.050;4.810;2024-03-08T15:35:25;9.80;99.90
37528;DHT22;23372;52.050;4.810;2024-03-08T15:37:52;9.70;99.90
37528;DHT22;23372;52.050;4.810;2024-03-08T15:40:19;9.60;99.90
37528;DHT22;23372;52.050;4.810;2024-03-08T15:45:22;9.60;99.90
37528;DHT22;23372;52.050;4.810;2024-03-08T15:47:52;9.60;99.90
37528;DHT22;23372;52.050;4.810;2024-03-08T15:50:18;9.60;99.90
37528;DHT22;23372;52.050;4.810;2024-03-08T15:52:49;9.70;99.90
37528;DHT22;23372;52.050;4.810;2024-03-08T15:55:19;9.80;99.90
37528;DHT22;23372;52.050;4.810;2024-03-08T15:57:52;9.70;99.90
37528;DHT22;23372;52.050;4.810;2024-03-08T16:00:21;9.70;99.90
37528;DHT22;23372;52.050;4.810;2024-03-08T16:02:59;9.70;99.90
37528;DHT22;23372;52.050;4.810;2024-03-08T16:05:25;9.70;99.90